LLBG Airport Information

Runway Information
Runway 03 Length 9094 ft width 148 ft
Elevation 129 ft Threshold 0 ft Heading 29
Runway 21 Length 9094 ft Width 148 ft
Elevation 134 ft Threshold 0 ft Heading 209
Runway 08 Length 13327 ft width 148 ft
Elevation 97 ft Threshold 0 ft Heading 80
Runway 26 Length 13327 ft Width 148 ft
Elevation 124 ft Threshold 1969 ft Heading 260
Runway 12 Length 10209 ft width 148 ft
Elevation 112 ft Threshold 0 ft Heading 121
Runway 30 Length 10209 ft Width 148 ft
Elevation 130 ft Threshold 246 ft Heading 301
Airport Frequencies
Type APP Name Ben Gurion Frequency 120.5 MHZ
Type ATIS Name ATIS Frequency 132.5 MHZ
Type CLD Name CLNC DEL Frequency 119.35 MHZ
Type GND Name GND WEST Frequency 118.05 MHZ
Type GND Name GND EAST Frequency 129.2 MHZ
Type MISC Name VOLMET Frequency 126.8 MHZ
Type TMA Name Ben Gurion Frequency 119.5 MHZ
Type TWR Name Ben Gurion Frequency 132.1 MHZ
Type TWR Name Ben Gurion Frequency 134.6 MHZ
Airport Navaids
Type VOR-DME Name Ben Gurion Frequency 113500 KHZ
Type NDB Name Tel Aviv Frequency 331 KHZ
Airport Weather Information & NOTAM
ADDS - METARS form results

(1455 UTC 22 July 2018)
 
METAR text: LLBG 221450Z 29010KT 250V320 9999 FEW024 30/22 Q1006 NOSIG
Conditions at: LLBG (BEN-GURION(CIV/M, IL) observed 1450 UTC 22 July 2018
Temperature: 30.0°C (86°F)
Dewpoint: 22.0°C (72°F) [RH = 62%]
Pressure (altimeter): 29.70 inches Hg (1006.0 mb)
Winds: from the WNW (290 degrees) at 12 MPH (10 knots; 5.2 m/s)
Visibility: 6 or more miles (10+ km)
Ceiling: at least 12,000 feet AGL
Clouds: few clouds at 2400 feet AGL
Weather: no significant weather observed at this time

METAR text: LLBG 221420Z 29010KT 9999 FEW024 30/21 Q1006 NOSIG
Conditions at: LLBG (BEN-GURION(CIV/M, IL) observed 1420 UTC 22 July 2018
Temperature: 30.0°C (86°F)
Dewpoint: 21.0°C (70°F) [RH = 59%]
Pressure (altimeter): 29.70 inches Hg (1006.0 mb)
Winds: from the WNW (290 degrees) at 12 MPH (10 knots; 5.2 m/s)
Visibility: 6 or more miles (10+ km)
Ceiling: at least 12,000 feet AGL
Clouds: few clouds at 2400 feet AGL
Weather: no significant weather observed at this time